Nearby METAR Reports

Actuele Vliegveldwaarnemingen NL (METAR).Zie KNMI uitleg METAR hier

EHAM - Amsterdam/Schiph, Netherlands
Distance from station: ONO 18km
Updated: 13/12/2017 23:25
Few Clouds
Few Clouds
 Wind van W
Wind: W 31 km/h
Temperatuur: 5°C
Wind Chill: 0°C
Dauwpunt: 2°C
Vochtigheid: 81%
Barometer: 986 hPa
Clouds: Few Clouds
Visibility: 10 km
Cloud details: Few Clouds 762 m
2017/12/13 22:25 EHAM 132225Z 27017KT 9999 FEW025 05/02 Q0986 NOSIG
EHKD - DE KOOY/DE KOOY
Updated: 13/12/2017 23:32
Few Clouds
Few Clouds
 Wind van W
Wind: W 37 km/h
Temperatuur: 6°C
Wind Chill: 1°C
Dauwpunt: 2°C
Vochtigheid: 76%
Barometer: 984 hPa
Clouds: Few Clouds
Visibility: 10 km
Cloud details: Few Clouds 701 m
2017/12/13 22:32 EHKD 132232Z AUTO 28020KT 240V310 9999 FEW023 06/02 Q0984 BLU
 
EHLW - LEEUWARDEN/LEEUWARDEN
Updated: 13/12/2017 23:26
Drizzle rain, Meestal bewolkt
Drizzle rain, Meestal bewolkt
 Wind van W
Wind: W 20 km/h
Temperatuur: 4°C
Wind Chill: -1°C
Dauwpunt: 3°C
Vochtigheid: 93%
Barometer: 982 hPa
Overzicht: Drizzle Rain
Clouds: Meestal bewolkt
Visibility: 10 km
Cloud details: Meestal bewolkt 457 m
Meestal bewolkt 640 m
Meestal bewolkt 884 m
2017/12/13 22:26 EHLW 132226Z AUTO 28011KT 250V310 9999 DZRA BKN015CB BKN021 BKN029 04/03 Q0982 WHT
EHVK - VOLKEL/VOLKEL
Updated: 13/12/2017 23:38
Meestal bewolkt
Meestal bewolkt
 Wind van WZW
Wind: WZW 24 km/h
Temperatuur: 6°C
Wind Chill: 2°C
Dauwpunt: 3°C
Vochtigheid: 81%
Barometer: 988 hPa
Clouds: Meestal bewolkt
Visibility: 10 km
Cloud details: Gedeeltelijk bewolkt 579 m
Meestal bewolkt 1189 m
2017/12/13 22:38 EHVK 132238Z AUTO 25013KT 220V290 9999 SCT019 BKN039 06/03 Q0988 WHT
 
EHFS - VLISSINGEN
Updated: 13/12/2017 23:25
Gedeeltelijk bewolkt
Gedeeltelijk bewolkt
 Wind van W
Wind: W 33 km/h
Temperatuur: 6°C
Wind Chill: 1°C
Dauwpunt: 2°C
Vochtigheid: 76%
Barometer: 989 hPa
Clouds: Gedeeltelijk bewolkt
Visibility: 10 km
2017/12/13 22:25 EHFS 132225Z AUTO 27018KT 9999 NSC 06/02 Q0989 W///H///
EHEH - EINDHOVEN/EINDHOVEN
Updated: 13/12/2017 23:38
Gedeeltelijk bewolkt
Gedeeltelijk bewolkt
 Wind van WZW
Wind: WZW 28 km/h
Temperatuur: 5°C
Wind Chill: 1°C
Dauwpunt: 3°C
Vochtigheid: 87%
Barometer: 989 hPa
Clouds: Gedeeltelijk bewolkt
Visibility: 10 km
Cloud details: Gedeeltelijk bewolkt 610 m
Gedeeltelijk bewolkt 1615 m
2017/12/13 22:38 EHEH 132238Z AUTO 25015KT 200V280 9999 SCT020 SCT053 05/03 Q0989 WHT
 
EHGR - GILZE-RIJEN/GILZE-RIJEN
Updated: 13/12/2017 23:25
Meestal bewolkt
Meestal bewolkt
 Wind van W
Wind: W 20 km/h, Windvlaag: 39 km/h
Temperatuur: 6°C
Wind Chill: 2°C
Dauwpunt: 3°C
Vochtigheid: 81%
Barometer: 989 hPa
Clouds: Meestal bewolkt
Visibility: 10 km
Cloud details: Few Clouds 457 m
Gedeeltelijk bewolkt 762 m
Meestal bewolkt 975 m
2017/12/13 22:25 EHGR 132225Z AUTO 26011G21KT 230V290 9999 FEW015CB SCT025 BKN032 06/03 Q0989 BLACKBLU
EHDL - ARNHEM/DEELEN
Updated: 13/12/2017 23:25
Meestal bewolkt
Meestal bewolkt
 Wind van WZW
Wind: WZW 20 km/h
Temperatuur: 4°C
Wind Chill: -1°C
Dauwpunt: 3°C
Vochtigheid: 93%
Barometer: 986 hPa
Clouds: Meestal bewolkt
Visibility: 10 km
Cloud details: Gedeeltelijk bewolkt 488 m
Meestal bewolkt 671 m
Meestal bewolkt 762 m
2017/12/13 22:25 EHDL 132225Z AUTO 25011KT 200V310 9999 SCT016 BKN022 BKN025 04/03 Q0986 WHT
 
EHBK - MAASTRICHT/MAASTRICHT-AACHEN
Updated: 13/12/2017 23:25
Helder
Helder
 Wind van WZW
Wind: WZW 24 km/h, Windvlaag: 43 km/h
Temperatuur: 6°C
Wind Chill: 2°C
Dauwpunt: 3°C
Vochtigheid: 81%
Barometer: 990 hPa
Clouds: Helder
Visibility: 10 km
2017/12/13 22:25 EHBK 132225Z AUTO 25013G23KT 200V300 9999 NCD 06/03 Q0990